createdAt,value
2023-05-24T00:00:56.145Z,101149.78
2023-05-24T00:03:26.823Z,101153.81
2023-05-24T00:05:57.064Z,101155.28
2023-05-24T00:08:27.307Z,101147.09
2023-05-24T00:10:57.413Z,101152.13
2023-05-24T00:13:27.556Z,101153.97
2023-05-24T00:16:00.253Z,101154.31
2023-05-24T00:18:31.436Z,101154.97
2023-05-24T00:21:01.722Z,101158.00
2023-05-24T00:23:31.868Z,101155.34
2023-05-24T00:26:01.960Z,101154.84
2023-05-24T00:28:32.148Z,101153.22
2023-05-24T00:31:05.339Z,101151.41
2023-05-24T00:33:35.630Z,101161.59
2023-05-24T00:36:06.108Z,101166.22
2023-05-24T00:38:36.427Z,101162.41
2023-05-24T00:41:06.723Z,101159.41
2023-05-24T00:43:37.365Z,101154.78
2023-05-24T00:46:23.236Z,101150.78
2023-05-24T00:48:54.120Z,101148.59
2023-05-24T00:51:24.462Z,101148.13
2023-05-24T00:53:54.818Z,101154.09
2023-05-24T00:56:25.346Z,101153.59
2023-05-24T00:58:58.877Z,101156.78
2023-05-24T01:01:32.293Z,101156.44
2023-05-24T01:04:02.597Z,101151.97
2023-05-24T01:06:36.545Z,101160.09
2023-05-24T01:09:20.236Z,101152.13
2023-05-24T01:12:03.014Z,101166.78
2023-05-24T01:14:56.500Z,101171.25
2023-05-24T01:17:35.004Z,101167.44
2023-05-24T01:20:09.156Z,101171.09
2023-05-24T01:23:08.831Z,101165.09
2023-05-24T01:25:51.341Z,101165.28
2023-05-24T01:28:25.643Z,101163.78
2023-05-24T01:30:57.599Z,101163.41
2023-05-24T01:33:28.886Z,101160.28
2023-05-24T01:36:00.242Z,101168.44
2023-05-24T01:38:30.491Z,101167.78
2023-05-24T01:41:08.619Z,101168.28
2023-05-24T01:43:46.878Z,101173.25
2023-05-24T01:46:25.904Z,101171.91
2023-05-24T01:49:06.456Z,101165.56
2023-05-24T01:51:43.351Z,101176.72
2023-05-24T01:54:15.811Z,101177.38
2023-05-24T01:56:49.198Z,101175.91
2023-05-24T01:59:23.577Z,101178.06
2023-05-24T02:01:53.941Z,101187.22
2023-05-24T02:04:24.346Z,101186.88
2023-05-24T02:06:54.628Z,101181.75
2023-05-24T02:09:24.719Z,101180.09
2023-05-24T02:11:55.001Z,101185.75
2023-05-24T02:14:29.170Z,101177.75
2023-05-24T02:17:01.030Z,101179.94
2023-05-24T02:19:31.558Z,101184.41
2023-05-24T02:22:01.894Z,101181.59
2023-05-24T02:24:33.627Z,101182.09
2023-05-24T02:27:04.049Z,101170.75
2023-05-24T02:29:37.369Z,101174.91
2023-05-24T02:32:08.489Z,101179.44
2023-05-24T02:34:38.936Z,101166.78
2023-05-24T02:37:09.497Z,101164.78
2023-05-24T02:39:39.778Z,101169.78
2023-05-24T02:42:13.527Z,101173.09
2023-05-24T02:44:48.251Z,101171.94
2023-05-24T02:47:18.806Z,101165.44
2023-05-24T02:49:52.447Z,101171.41
2023-05-24T02:52:23.513Z,101166.09
2023-05-24T02:54:53.932Z,101169.09
2023-05-24T02:57:25.759Z,101171.44
2023-05-24T03:00:04.104Z,101167.91
2023-05-24T03:02:38.637Z,101176.59
2023-05-24T03:05:10.523Z,101173.25
2023-05-24T03:07:41.226Z,101174.38
2023-05-24T03:10:15.147Z,101179.06
2023-05-24T03:12:46.707Z,101174.41
2023-05-24T03:15:19.476Z,101182.94
2023-05-24T03:17:52.399Z,101177.28
2023-05-24T03:20:24.076Z,101179.59
2023-05-24T03:22:54.937Z,101175.44
2023-05-24T03:25:25.586Z,101178.25
2023-05-24T03:27:55.668Z,101178.59
2023-05-24T03:30:30.206Z,101180.75
2023-05-24T03:33:03.294Z,101185.25
2023-05-24T03:35:34.021Z,101185.09
2023-05-24T03:38:04.410Z,101188.75
2023-05-24T03:40:49.280Z,101184.75
2023-05-24T03:43:35.844Z,101189.06
2023-05-24T03:46:13.777Z,101191.22
2023-05-24T03:48:45.586Z,101193.06
2023-05-24T03:51:15.667Z,101193.53
2023-05-24T03:53:48.752Z,101194.72
2023-05-24T03:56:19.080Z,101201.22
2023-05-24T03:58:49.115Z,101204.88
2023-05-24T04:01:33.290Z,101214.06
2023-05-24T04:04:05.180Z,101206.22
2023-05-24T04:06:37.035Z,101207.41
2023-05-24T04:09:11.041Z,101210.72
2023-05-24T04:11:43.848Z,101204.53
2023-05-24T04:14:15.172Z,101202.72
2023-05-24T04:16:48.652Z,101207.56
2023-05-24T04:19:18.882Z,101209.53
2023-05-24T04:21:49.319Z,101217.25
2023-05-24T04:24:19.572Z,101215.88
2023-05-24T04:26:51.943Z,101210.53
2023-05-24T04:29:22.269Z,101218.53
2023-05-24T04:31:56.384Z,101226.84
2023-05-24T04:34:29.841Z,101225.00
2023-05-24T04:36:59.933Z,101222.00
2023-05-24T04:39:30.174Z,101212.84
2023-05-24T04:42:00.906Z,101226.00
2023-05-24T04:44:31.212Z,101218.66
2023-05-24T04:47:04.195Z,101218.97
2023-05-24T04:49:34.690Z,101227.50
2023-05-24T04:52:04.963Z,101239.84
2023-05-24T04:54:36.598Z,101236.47
2023-05-24T04:57:07.026Z,101243.13
2023-05-24T04:59:37.739Z,101245.75
2023-05-24T05:02:10.814Z,101250.28
2023-05-24T05:04:41.308Z,101261.47
2023-05-24T05:07:11.652Z,101263.47
2023-05-24T05:09:42.361Z,101256.28
2023-05-24T05:12:13.506Z,101260.28
2023-05-24T05:14:44.191Z,101266.63
2023-05-24T05:17:16.947Z,101264.13
2023-05-24T05:19:47.195Z,101262.81
2023-05-24T05:22:17.606Z,101265.44
2023-05-24T05:24:50.492Z,101266.91
2023-05-24T05:27:20.680Z,101272.75
2023-05-24T05:29:50.881Z,101272.06
2023-05-24T05:32:23.736Z,101270.75
2023-05-24T05:34:53.923Z,101278.19
2023-05-24T05:37:26.926Z,101273.00
2023-05-24T05:39:57.041Z,101275.13
2023-05-24T05:42:27.156Z,101281.13
2023-05-24T05:45:15.498Z,101284.31
2023-05-24T05:47:48.558Z,101288.28
2023-05-24T05:50:18.874Z,101291.31
2023-05-24T05:52:49.048Z,101288.00
2023-05-24T05:55:19.204Z,101288.66
2023-05-24T05:57:49.394Z,101290.16
2023-05-24T06:00:20.855Z,101292.22
2023-05-24T06:02:58.155Z,101289.88
2023-05-24T06:05:30.905Z,101287.88
2023-05-24T06:08:01.273Z,101290.69
2023-05-24T06:10:31.848Z,101295.66
2023-05-24T06:13:02.352Z,101299.47
2023-05-24T06:15:33.728Z,101301.59
2023-05-24T06:18:08.067Z,101310.09
2023-05-24T06:20:38.799Z,101309.69
2023-05-24T06:23:09.050Z,101310.09
2023-05-24T06:25:40.714Z,101312.81
2023-05-24T06:28:10.787Z,101318.91
2023-05-24T06:30:41.253Z,101320.75
2023-05-24T06:33:22.512Z,101316.66
2023-05-24T06:35:52.703Z,101319.16
2023-05-24T06:38:22.803Z,101323.41
2023-05-24T06:40:53.112Z,101326.72
2023-05-24T06:43:26.304Z,101330.75
2023-05-24T06:46:00.551Z,101328.06
2023-05-24T06:48:33.500Z,101336.22
2023-05-24T06:51:04.265Z,101339.84
2023-05-24T06:53:34.614Z,101346.22
2023-05-24T06:56:05.368Z,101338.78
2023-05-24T06:58:35.580Z,101345.72
2023-05-24T07:01:06.009Z,101341.31
2023-05-24T07:03:41.515Z,101344.34
2023-05-24T07:06:14.337Z,101349.19
2023-05-24T07:08:44.719Z,101352.59
2023-05-24T07:11:16.137Z,101342.28
2023-05-24T07:13:46.427Z,101343.97
2023-05-24T07:16:16.984Z,101355.44
2023-05-24T07:18:49.960Z,101350.91
2023-05-24T07:21:20.256Z,101351.75
2023-05-24T07:23:53.573Z,101356.56
2023-05-24T07:26:23.948Z,101358.03
2023-05-24T07:28:56.062Z,101359.88
2023-05-24T07:31:27.552Z,101359.66
2023-05-24T07:34:02.876Z,101357.97
2023-05-24T07:36:34.933Z,101366.28
2023-05-24T07:39:06.582Z,101368.16
2023-05-24T07:41:36.816Z,101371.50
2023-05-24T07:44:07.322Z,101375.22
2023-05-24T07:46:38.174Z,101379.34
2023-05-24T07:49:11.288Z,101376.84
2023-05-24T07:51:41.880Z,101378.72
2023-05-24T07:54:12.002Z,101384.72
2023-05-24T07:56:42.171Z,101385.34
2023-05-24T07:59:12.605Z,101387.22
2023-05-24T08:01:43.573Z,101394.31
2023-05-24T08:04:16.462Z,101388.91
2023-05-24T08:06:46.891Z,101396.56
2023-05-24T08:09:17.325Z,101392.63
2023-05-24T08:11:47.397Z,101388.41
2023-05-24T08:14:17.574Z,101389.03
2023-05-24T08:16:47.649Z,101391.44
2023-05-24T08:19:20.298Z,101396.22
2023-05-24T08:21:50.361Z,101400.34
2023-05-24T08:24:20.935Z,101401.78
2023-05-24T08:26:52.007Z,101409.06
2023-05-24T08:29:22.169Z,101410.75
2023-05-24T08:31:52.315Z,101406.75
2023-05-24T08:34:25.144Z,101405.28
2023-05-24T08:36:57.923Z,101407.06
2023-05-24T08:39:31.263Z,101411.47
2023-05-24T08:42:09.913Z,101414.59
2023-05-24T08:44:44.512Z,101421.38
2023-05-24T08:47:15.957Z,101421.47
2023-05-24T08:49:50.483Z,101419.81
2023-05-24T08:52:21.478Z,101429.09
2023-05-24T08:54:52.531Z,101434.38
2023-05-24T08:57:24.579Z,101427.19
2023-05-24T08:59:56.241Z,101429.38
2023-05-24T09:02:27.090Z,101438.53
2023-05-24T09:05:14.667Z,101432.94
2023-05-24T09:07:46.211Z,101426.81
2023-05-24T09:10:17.947Z,101435.28
2023-05-24T09:12:50.578Z,101436.72
2023-05-24T09:15:20.830Z,101440.97
2023-05-24T09:17:51.483Z,101440.56
2023-05-24T09:20:24.772Z,101437.34
2023-05-24T09:22:56.105Z,101427.72
2023-05-24T09:25:30.593Z,101432.84
2023-05-24T09:28:00.831Z,101430.47
2023-05-24T09:30:31.130Z,101437.78
2023-05-24T09:33:05.533Z,101446.13
2023-05-24T09:35:38.906Z,101437.22
2023-05-24T09:38:09.108Z,101440.22
2023-05-24T09:40:39.412Z,101437.41
2023-05-24T09:43:11.575Z,101435.56
2023-05-24T09:45:44.608Z,101433.66
2023-05-24T09:48:15.517Z,101440.13
2023-05-24T09:51:00.149Z,101444.22
2023-05-24T09:53:30.613Z,101439.78
2023-05-24T09:56:00.834Z,101446.13
2023-05-24T09:58:34.918Z,101441.03
2023-05-24T10:01:11.275Z,101443.56
2023-05-24T10:03:42.232Z,101450.31
2023-05-24T10:06:17.374Z,101456.19
2023-05-24T10:08:48.432Z,101455.22
2023-05-24T10:11:18.792Z,101460.66
2023-05-24T10:13:49.272Z,101454.78
2023-05-24T10:16:19.645Z,101457.38
2023-05-24T10:18:50.639Z,101455.19
2023-05-24T10:21:26.981Z,101464.75
2023-05-24T10:24:01.976Z,101460.19
2023-05-24T10:26:36.350Z,101457.31
2023-05-24T10:29:12.719Z,101457.31
2023-05-24T10:31:45.584Z,101455.22
2023-05-24T10:34:16.395Z,101458.34
2023-05-24T10:36:50.114Z,101462.25
2023-05-24T10:39:24.432Z,101466.44
2023-05-24T10:41:54.780Z,101463.50
2023-05-24T10:44:24.909Z,101481.34
2023-05-24T10:47:11.224Z,101469.50
2023-05-24T10:49:42.829Z,101469.94
2023-05-24T10:52:15.907Z,101469.06
2023-05-24T10:55:05.786Z,101477.06
2023-05-24T10:57:36.270Z,101476.72
2023-05-24T11:03:05.618Z,101460.81
2023-05-24T11:05:38.099Z,101467.13
2023-05-24T11:08:13.445Z,101478.59
2023-05-24T11:10:44.783Z,101472.47
2023-05-24T11:13:15.337Z,101472.47
2023-05-24T11:15:53.891Z,101476.75
2023-05-24T11:18:26.749Z,101477.66
2023-05-24T11:20:57.728Z,101468.69
2023-05-24T11:23:36.010Z,101469.97
2023-05-24T11:26:07.721Z,101463.28
2023-05-24T11:28:40.353Z,101467.94
2023-05-24T11:31:12.064Z,101462.91
2023-05-24T11:33:44.555Z,101466.25
2023-05-24T11:36:14.921Z,101471.03
2023-05-24T11:41:37.907Z,101474.13
2023-05-24T11:44:11.787Z,101479.66
2023-05-24T11:46:42.933Z,101478.44
2023-05-24T11:49:16.487Z,101478.88
2023-05-24T11:51:46.887Z,101481.66
2023-05-24T11:54:22.677Z,101479.31
2023-05-24T11:56:52.842Z,101475.66
2023-05-24T11:59:26.627Z,101485.53
2023-05-24T12:02:04.721Z,101485.06
2023-05-24T12:04:37.390Z,101484.38
2023-05-24T12:07:14.569Z,101480.16
2023-05-24T12:09:47.628Z,101476.63
2023-05-24T12:12:27.085Z,101479.22
2023-05-24T12:15:05.890Z,101469.13
2023-05-24T12:17:38.301Z,101481.03
2023-05-24T12:20:10.386Z,101481.34
2023-05-24T12:22:43.214Z,101477.59
2023-05-24T12:25:17.232Z,101476.25
2023-05-24T12:27:48.864Z,101474.38
2023-05-24T12:30:21.690Z,101472.03
2023-05-24T12:32:54.052Z,101473.19
2023-05-24T12:35:25.089Z,101466.41
2023-05-24T12:38:02.793Z,101467.13
2023-05-24T12:40:36.301Z,101472.56
2023-05-24T12:43:08.888Z,101463.66
2023-05-24T12:45:39.305Z,101472.19
2023-05-24T12:48:09.732Z,101476.19
2023-05-24T12:50:39.902Z,101475.50
2023-05-24T12:53:10.398Z,101470.19
2023-05-24T12:55:43.378Z,101469.75
2023-05-24T12:58:16.706Z,101469.53
2023-05-24T13:00:50.474Z,101473.28
2023-05-24T13:03:21.031Z,101473.34
2023-05-24T13:05:51.665Z,101480.13
2023-05-24T13:08:22.061Z,101476.13
2023-05-24T13:10:54.960Z,101487.72
2023-05-24T13:13:25.287Z,101481.41
2023-05-24T13:15:55.429Z,101487.19
2023-05-24T13:18:26.536Z,101479.53
2023-05-24T13:20:57.912Z,101485.00
2023-05-24T13:23:28.125Z,101486.50
2023-05-24T13:26:07.064Z,101469.00
2023-05-24T13:28:38.227Z,101473.22
2023-05-24T13:31:09.583Z,101465.19
2023-05-24T13:33:39.785Z,101466.72
2023-05-24T13:36:11.275Z,101468.69
2023-05-24T13:38:41.713Z,101466.97
2023-05-24T13:41:17.266Z,101467.34
2023-05-24T13:43:47.580Z,101464.47
2023-05-24T13:46:17.920Z,101465.75
2023-05-24T13:48:48.741Z,101467.56
2023-05-24T13:51:20.095Z,101472.03
2023-05-24T13:53:51.154Z,101469.81
2023-05-24T13:56:25.058Z,101463.88
2023-05-24T13:59:01.468Z,101471.41
2023-05-24T14:01:35.928Z,101469.16
2023-05-24T14:04:08.204Z,101468.72
2023-05-24T14:06:40.155Z,101469.72
2023-05-24T14:09:11.235Z,101468.72
2023-05-24T14:11:48.255Z,101466.03
2023-05-24T14:16:55.251Z,101480.56
2023-05-24T14:19:26.593Z,101483.06
2023-05-24T14:21:57.230Z,101469.59
2023-05-24T14:24:28.007Z,101467.50
2023-05-24T14:27:03.537Z,101466.66
2023-05-24T14:29:36.297Z,101459.41
2023-05-24T14:32:06.882Z,101471.94
2023-05-24T14:34:38.511Z,101465.94
2023-05-24T14:37:09.633Z,101458.13
2023-05-24T14:39:43.650Z,101453.53
2023-05-24T14:42:16.809Z,101460.22
2023-05-24T14:44:47.039Z,101467.03
2023-05-24T14:47:17.389Z,101459.53
2023-05-24T14:49:47.634Z,101462.38
2023-05-24T14:52:17.931Z,101462.25
2023-05-24T14:54:48.550Z,101466.66
2023-05-24T14:57:22.068Z,101458.44
2023-05-24T14:59:52.382Z,101455.38
2023-05-24T15:02:26.298Z,101457.09
2023-05-24T15:05:31.753Z,101456.69
2023-05-24T15:08:04.017Z,101454.81
2023-05-24T15:10:39.096Z,101456.47
2023-05-24T15:13:12.084Z,101461.03
2023-05-24T15:15:42.317Z,101463.34
2023-05-24T15:18:13.624Z,101456.66
2023-05-24T15:20:44.288Z,101462.63
2023-05-24T15:23:15.086Z,101458.88
2023-05-24T15:25:52.786Z,101458.91
2023-05-24T15:28:35.853Z,101465.13
2023-05-24T15:31:06.002Z,101458.91
2023-05-24T15:33:36.258Z,101456.41
2023-05-24T15:36:06.787Z,101458.31
2023-05-24T15:38:38.929Z,101458.13
2023-05-24T15:41:12.390Z,101460.03
2023-05-24T15:43:45.229Z,101461.03
2023-05-24T15:46:29.621Z,101462.00
2023-05-24T15:48:59.743Z,101462.25
2023-05-24T15:54:04.237Z,101460.97
2023-05-24T15:56:34.367Z,101458.06
2023-05-24T15:59:10.228Z,101464.94
2023-05-24T16:01:40.438Z,101452.50
2023-05-24T16:04:10.904Z,101454.94
2023-05-24T16:06:41.337Z,101469.56
2023-05-24T16:09:11.864Z,101459.38
2023-05-24T16:11:43.886Z,101457.47
2023-05-24T16:14:17.332Z,101461.59
2023-05-24T16:16:50.754Z,101471.03
2023-05-24T16:19:23.910Z,101469.38
2023-05-24T16:21:54.075Z,101468.22
2023-05-24T16:24:24.661Z,101467.00
2023-05-24T16:26:55.288Z,101462.38
2023-05-24T16:29:35.466Z,101463.75
2023-05-24T16:32:07.915Z,101456.19
2023-05-24T16:34:55.392Z,101462.47
2023-05-24T16:37:32.606Z,101465.19
2023-05-24T16:40:05.729Z,101471.22
2023-05-24T16:42:37.098Z,101465.47
2023-05-24T16:45:10.770Z,101470.03
2023-05-24T16:47:41.046Z,101465.91
2023-05-24T16:50:15.368Z,101467.25
2023-05-24T16:52:45.984Z,101473.22
2023-05-24T16:55:19.779Z,101465.38
2023-05-24T16:57:50.973Z,101476.38
2023-05-24T17:00:24.869Z,101474.53
2023-05-24T17:02:55.138Z,101470.06
2023-05-24T17:05:27.331Z,101457.72
2023-05-24T17:08:00.653Z,101463.63
2023-05-24T17:10:33.234Z,101473.56
2023-05-24T17:13:13.634Z,101478.69
2023-05-24T17:16:01.193Z,101469.00
2023-05-24T17:18:33.783Z,101472.38
2023-05-24T17:21:07.697Z,101471.81
2023-05-24T17:23:39.939Z,101478.34
2023-05-24T17:26:11.677Z,101480.19
2023-05-24T17:28:42.001Z,101477.09
2023-05-24T17:31:20.980Z,101483.75
2023-05-24T17:33:51.224Z,101482.81
2023-05-24T17:36:21.777Z,101483.59
2023-05-24T17:38:52.124Z,101494.13
2023-05-24T17:41:24.221Z,101480.69
2023-05-24T17:43:54.358Z,101490.13
2023-05-24T17:46:27.508Z,101490.50
2023-05-24T17:49:03.340Z,101486.41
2023-05-24T17:51:35.152Z,101490.13
2023-05-24T17:54:05.635Z,101490.94
2023-05-24T17:56:38.764Z,101494.25
2023-05-24T17:59:09.405Z,101495.72
2023-05-24T18:01:49.359Z,101493.03
2023-05-24T18:04:20.018Z,101498.63
2023-05-24T18:06:51.890Z,101502.53
2023-05-24T18:09:23.715Z,101501.06
2023-05-24T18:11:54.224Z,101506.19
2023-05-24T18:14:24.636Z,101502.31
2023-05-24T18:16:58.782Z,101506.16
2023-05-24T18:19:29.819Z,101513.97
2023-05-24T18:22:00.260Z,101513.72
2023-05-24T18:24:31.231Z,101516.78
2023-05-24T18:27:02.515Z,101515.53
2023-05-24T18:29:32.814Z,101518.13
2023-05-24T18:32:05.735Z,101520.22
2023-05-24T18:34:36.101Z,101518.50
2023-05-24T18:37:06.425Z,101525.06
2023-05-24T18:39:36.649Z,101522.94
2023-05-24T18:42:09.207Z,101527.56
2023-05-24T18:44:40.156Z,101528.97
2023-05-24T18:47:15.991Z,101524.16
2023-05-24T18:49:46.992Z,101531.38
2023-05-24T18:52:20.406Z,101526.94
2023-05-24T18:54:52.801Z,101537.59
2023-05-24T18:57:24.418Z,101533.78
2023-05-24T18:59:55.242Z,101532.31
2023-05-24T19:02:38.660Z,101540.25
2023-05-24T19:05:09.982Z,101541.19
2023-05-24T19:07:40.305Z,101538.59
2023-05-24T19:10:17.876Z,101548.03
2023-05-24T19:12:48.390Z,101547.75
2023-05-24T19:15:21.619Z,101551.31
2023-05-24T19:17:58.355Z,101561.09
2023-05-24T19:20:28.784Z,101558.31
2023-05-24T19:22:59.274Z,101560.06
2023-05-24T19:25:30.652Z,101563.78
2023-05-24T19:28:01.197Z,101572.00
2023-05-24T19:30:31.462Z,101575.03
2023-05-24T19:33:04.214Z,101578.06
2023-05-24T19:35:34.338Z,101578.25
2023-05-24T19:38:04.473Z,101578.44
2023-05-24T19:40:34.673Z,101580.44
2023-05-24T19:43:04.871Z,101580.63
2023-05-24T19:45:36.548Z,101579.75
2023-05-24T19:48:10.185Z,101588.16
2023-05-24T19:50:40.908Z,101587.38
2023-05-24T19:53:11.076Z,101586.06
2023-05-24T19:55:41.567Z,101589.66
2023-05-24T19:58:12.194Z,101589.53
2023-05-24T20:00:42.436Z,101590.25
2023-05-24T20:03:15.360Z,101587.41
2023-05-24T20:05:45.800Z,101587.94
2023-05-24T20:08:22.092Z,101588.84
2023-05-24T20:10:53.075Z,101599.06
2023-05-24T20:13:26.536Z,101592.38
2023-05-24T20:15:56.843Z,101590.25
2023-05-24T20:18:35.242Z,101589.94
2023-05-24T20:21:06.883Z,101598.47
2023-05-24T20:23:37.125Z,101598.97
2023-05-24T20:26:07.465Z,101602.19
2023-05-24T20:28:37.725Z,101600.88
2023-05-24T20:31:08.164Z,101603.72
2023-05-24T20:33:41.553Z,101609.75
2023-05-24T20:36:11.728Z,101602.75
2023-05-24T20:38:42.156Z,101600.25
2023-05-24T20:41:12.313Z,101605.94
2023-05-24T20:43:45.717Z,101608.78
2023-05-24T20:46:19.560Z,101608.28
2023-05-24T20:48:53.987Z,101616.66
2023-05-24T20:51:30.789Z,101609.31
2023-05-24T20:54:02.900Z,101616.00
2023-05-24T20:56:33.002Z,101613.00
2023-05-24T20:59:03.079Z,101610.03
2023-05-24T21:01:33.303Z,101620.19
2023-05-24T21:04:06.138Z,101617.00
2023-05-24T21:06:36.355Z,101618.84
2023-05-24T21:09:07.065Z,101620.88
2023-05-24T21:11:37.463Z,101628.38
2023-05-24T21:14:07.682Z,101634.06
2023-05-24T21:16:37.786Z,101629.22
2023-05-24T21:19:10.643Z,101632.06
2023-05-24T21:21:40.813Z,101633.41
2023-05-24T21:24:11.118Z,101644.44
2023-05-24T21:26:41.219Z,101647.78
2023-05-24T21:29:13.321Z,101645.72
2023-05-24T21:31:43.585Z,101643.41
2023-05-24T21:34:16.501Z,101649.38
2023-05-24T21:36:46.823Z,101652.53
2023-05-24T21:39:16.909Z,101651.03
2023-05-24T21:41:47.178Z,101649.53
2023-05-24T21:44:17.364Z,101664.03
2023-05-24T21:46:47.575Z,101664.38
2023-05-24T21:49:21.593Z,101658.38
2023-05-24T21:51:51.764Z,101652.03
2023-05-24T21:54:22.583Z,101654.19
2023-05-24T21:56:52.801Z,101659.16
2023-05-24T21:59:23.928Z,101660.97
2023-05-24T22:01:54.147Z,101665.63
2023-05-24T22:04:27.040Z,101662.91
2023-05-24T22:06:57.242Z,101665.75
2023-05-24T22:09:27.369Z,101672.91
2023-05-24T22:11:57.560Z,101672.91
2023-05-24T22:14:27.618Z,101675.06
2023-05-24T22:16:57.777Z,101674.03
2023-05-24T22:19:39.445Z,101666.00
2023-05-24T22:22:10.591Z,101673.31
2023-05-24T22:24:40.998Z,101677.47
2023-05-24T22:27:13.883Z,101677.41
2023-05-24T22:29:44.138Z,101677.91
2023-05-24T22:32:14.508Z,101672.25
2023-05-24T22:34:47.462Z,101680.94
2023-05-24T22:37:18.354Z,101682.44
2023-05-24T22:39:48.717Z,101685.41
2023-05-24T22:42:19.044Z,101679.56
2023-05-24T22:44:49.279Z,101678.38
2023-05-24T22:47:22.175Z,101673.16
2023-05-24T22:49:56.685Z,101683.84
2023-05-24T22:52:27.558Z,101687.38
2023-05-24T22:54:57.835Z,101684.28
2023-05-24T22:57:28.069Z,101684.59
2023-05-24T22:59:58.151Z,101686.75
2023-05-24T23:02:29.377Z,101693.53
2023-05-24T23:05:03.203Z,101683.50
2023-05-24T23:07:33.786Z,101681.47
2023-05-24T23:10:03.984Z,101679.94
2023-05-24T23:12:34.526Z,101677.75
2023-05-24T23:15:04.886Z,101675.38
2023-05-24T23:17:35.458Z,101676.22
2023-05-24T23:20:10.258Z,101676.34
2023-05-24T23:22:40.624Z,101684.19
2023-05-24T23:25:12.416Z,101680.00
2023-05-24T23:27:43.565Z,101679.66
2023-05-24T23:30:14.223Z,101677.13
2023-05-24T23:32:44.328Z,101675.16
2023-05-24T23:35:17.358Z,101674.00
2023-05-24T23:37:47.649Z,101682.00
2023-05-24T23:40:18.041Z,101683.00
2023-05-24T23:42:48.100Z,101683.84
2023-05-24T23:45:18.326Z,101684.34
2023-05-24T23:47:48.455Z,101685.59
2023-05-24T23:50:22.787Z,101685.13
2023-05-24T23:52:53.285Z,101681.16
2023-05-24T23:55:24.835Z,101679.84
2023-05-24T23:57:55.231Z,101687.38
